Terminal Aerodrome Forecast
Issued by NWS Melbourne, FL

Home | Current Version | Previous Version | Text Only | Print | Product List | Glossary On
Versions: 1 2 3 4 5 6 7 8 9 10 11 12 13 14 15 16 17
424
FTUS42 KMLB 070318 AAA
TAFVRB
TAF AMD
KVRB 070318Z 0703/0724 33010KT P6SM VCSH FEW006 SCT025 BKN035
      TEMPO 0703/0706 5SM -RA BR BKN006 OVC025
     FM070800 31015G25KT P6SM OVC010
     FM071500 30022G32KT P6SM BKN020=

USA.gov is the U.S. government's official web portal to all federal, state and local government web resources and services.